sensor_id;sensor_type;location;lat;lon;timestamp;P1;durP1;ratioP1;P2;durP2;ratioP2
18251;SDS011;26917;52.328;20.878;2023-02-28T00:01:29;56.25;;;26.55;;
18251;SDS011;26917;52.328;20.878;2023-02-28T00:03:59;58.97;;;25.20;;
18251;SDS011;26917;52.328;20.878;2023-02-28T00:06:28;59.90;;;26.80;;
18251;SDS011;26917;52.328;20.878;2023-02-28T00:08:56;58.70;;;25.73;;
18251;SDS011;26917;52.328;20.878;2023-02-28T00:11:25;57.47;;;23.15;;
18251;SDS011;26917;52.328;20.878;2023-02-28T00:13:54;59.75;;;24.33;;
18251;SDS011;26917;52.328;20.878;2023-02-28T00:16:22;58.15;;;23.40;;
18251;SDS011;26917;52.328;20.878;2023-02-28T00:18:51;52.75;;;24.38;;
18251;SDS011;26917;52.328;20.878;2023-02-28T00:21:20;49.97;;;22.73;;
18251;SDS011;26917;52.328;20.878;2023-02-28T00:23:50;45.92;;;22.38;;
18251;SDS011;26917;52.328;20.878;2023-02-28T00:26:18;43.85;;;22.20;;
18251;SDS011;26917;52.328;20.878;2023-02-28T00:28:48;52.92;;;22.77;;
18251;SDS011;26917;52.328;20.878;2023-02-28T00:31:19;62.40;;;25.52;;
18251;SDS011;26917;52.328;20.878;2023-02-28T00:33:47;62.63;;;25.02;;
18251;SDS011;26917;52.328;20.878;2023-02-28T00:36:15;60.65;;;23.05;;
18251;SDS011;26917;52.328;20.878;2023-02-28T00:38:48;56.95;;;22.80;;
18251;SDS011;26917;52.328;20.878;2023-02-28T00:41:16;52.15;;;23.95;;
18251;SDS011;26917;52.328;20.878;2023-02-28T00:43:46;54.08;;;21.92;;
18251;SDS011;26917;52.328;20.878;2023-02-28T00:46:14;47.67;;;21.35;;
18251;SDS011;26917;52.328;20.878;2023-02-28T00:48:43;50.47;;;21.98;;
18251;SDS011;26917;52.328;20.878;2023-02-28T00:51:11;46.00;;;22.80;;
18251;SDS011;26917;52.328;20.878;2023-02-28T00:53:40;45.78;;;20.98;;
18251;SDS011;26917;52.328;20.878;2023-02-28T00:56:10;56.78;;;20.95;;
18251;SDS011;26917;52.328;20.878;2023-02-28T00:58:38;48.00;;;22.00;;
18251;SDS011;26917;52.328;20.878;2023-02-28T01:01:06;50.35;;;23.60;;
18251;SDS011;26917;52.328;20.878;2023-02-28T01:03:37;52.88;;;22.13;;
18251;SDS011;26917;52.328;20.878;2023-02-28T01:06:05;47.42;;;21.60;;
18251;SDS011;26917;52.328;20.878;2023-02-28T01:08:34;46.55;;;22.42;;
18251;SDS011;26917;52.328;20.878;2023-02-28T01:11:07;52.47;;;22.25;;
18251;SDS011;26917;52.328;20.878;2023-02-28T01:13:39;46.85;;;21.65;;
18251;SDS011;26917;52.328;20.878;2023-02-28T01:16:07;46.78;;;18.67;;
18251;SDS011;26917;52.328;20.878;2023-02-28T01:18:36;48.83;;;21.40;;
18251;SDS011;26917;52.328;20.878;2023-02-28T01:21:07;52.47;;;22.63;;
18251;SDS011;26917;52.328;20.878;2023-02-28T01:23:36;50.38;;;21.95;;
18251;SDS011;26917;52.328;20.878;2023-02-28T01:26:05;54.92;;;21.65;;
18251;SDS011;26917;52.328;20.878;2023-02-28T01:28:39;53.10;;;20.25;;
18251;SDS011;26917;52.328;20.878;2023-02-28T01:31:08;50.75;;;22.15;;
18251;SDS011;26917;52.328;20.878;2023-02-28T01:33:37;53.90;;;21.88;;
18251;SDS011;26917;52.328;20.878;2023-02-28T01:36:08;49.65;;;21.35;;
18251;SDS011;26917;52.328;20.878;2023-02-28T01:38:39;44.95;;;21.38;;
18251;SDS011;26917;52.328;20.878;2023-02-28T01:41:07;51.78;;;20.05;;
18251;SDS011;26917;52.328;20.878;2023-02-28T01:43:59;48.85;;;22.85;;
18251;SDS011;26917;52.328;20.878;2023-02-28T01:46:32;50.20;;;22.67;;
18251;SDS011;26917;52.328;20.878;2023-02-28T01:49:04;47.28;;;21.63;;
18251;SDS011;26917;52.328;20.878;2023-02-28T01:51:37;67.03;;;23.08;;
18251;SDS011;26917;52.328;20.878;2023-02-28T01:54:12;51.58;;;20.42;;
18251;SDS011;26917;52.328;20.878;2023-02-28T01:56:47;50.58;;;20.83;;
18251;SDS011;26917;52.328;20.878;2023-02-28T01:59:22;46.75;;;18.67;;
18251;SDS011;26917;52.328;20.878;2023-02-28T02:01:54;50.78;;;21.83;;
18251;SDS011;26917;52.328;20.878;2023-02-28T02:04:23;46.78;;;22.15;;
18251;SDS011;26917;52.328;20.878;2023-02-28T02:06:54;56.47;;;22.30;;
18251;SDS011;26917;52.328;20.878;2023-02-28T02:09:23;83.28;;;30.67;;
18251;SDS011;26917;52.328;20.878;2023-02-28T02:11:51;74.68;;;27.17;;
18251;SDS011;26917;52.328;20.878;2023-02-28T02:14:33;65.50;;;27.08;;
18251;SDS011;26917;52.328;20.878;2023-02-28T02:17:15;82.70;;;29.23;;
18251;SDS011;26917;52.328;20.878;2023-02-28T02:20:01;67.50;;;26.65;;
18251;SDS011;26917;52.328;20.878;2023-02-28T02:22:59;71.68;;;26.00;;
18251;SDS011;26917;52.328;20.878;2023-02-28T02:25:54;74.53;;;26.40;;
18251;SDS011;26917;52.328;20.878;2023-02-28T02:28:42;70.80;;;27.00;;
18251;SDS011;26917;52.328;20.878;2023-02-28T02:34:35;53.05;;;23.92;;
18251;SDS011;26917;52.328;20.878;2023-02-28T02:37:14;75.03;;;25.73;;
18251;SDS011;26917;52.328;20.878;2023-02-28T02:39:51;70.88;;;27.20;;
18251;SDS011;26917;52.328;20.878;2023-02-28T02:42:25;63.20;;;24.70;;
18251;SDS011;26917;52.328;20.878;2023-02-28T02:45:00;67.03;;;26.85;;
18251;SDS011;26917;52.328;20.878;2023-02-28T02:47:32;72.78;;;27.45;;
18251;SDS011;26917;52.328;20.878;2023-02-28T02:50:05;73.15;;;27.15;;
18251;SDS011;26917;52.328;20.878;2023-02-28T02:52:37;74.63;;;28.15;;
18251;SDS011;26917;52.328;20.878;2023-02-28T02:55:09;69.57;;;28.02;;
18251;SDS011;26917;52.328;20.878;2023-02-28T02:57:42;79.45;;;33.15;;
18251;SDS011;26917;52.328;20.878;2023-02-28T03:00:15;71.50;;;28.67;;
18251;SDS011;26917;52.328;20.878;2023-02-28T03:02:47;85.60;;;33.03;;
18251;SDS011;26917;52.328;20.878;2023-02-28T03:05:21;82.05;;;31.65;;
18251;SDS011;26917;52.328;20.878;2023-02-28T03:07:54;73.38;;;30.80;;
18251;SDS011;26917;52.328;20.878;2023-02-28T03:10:29;84.20;;;31.42;;
18251;SDS011;26917;52.328;20.878;2023-02-28T03:13:04;76.35;;;30.65;;
18251;SDS011;26917;52.328;20.878;2023-02-28T03:16:07;85.55;;;31.42;;
18251;SDS011;26917;52.328;20.878;2023-02-28T03:18:58;66.35;;;29.90;;
18251;SDS011;26917;52.328;20.878;2023-02-28T03:21:40;68.70;;;27.55;;
18251;SDS011;26917;52.328;20.878;2023-02-28T03:24:15;75.22;;;30.83;;
18251;SDS011;26917;52.328;20.878;2023-02-28T03:26:50;75.43;;;29.45;;
18251;SDS011;26917;52.328;20.878;2023-02-28T03:29:22;80.97;;;30.27;;
18251;SDS011;26917;52.328;20.878;2023-02-28T03:31:58;68.35;;;29.23;;
18251;SDS011;26917;52.328;20.878;2023-02-28T03:34:32;78.00;;;28.42;;
18251;SDS011;26917;52.328;20.878;2023-02-28T03:37:05;80.32;;;31.23;;
18251;SDS011;26917;52.328;20.878;2023-02-28T03:39:39;81.55;;;32.83;;
18251;SDS011;26917;52.328;20.878;2023-02-28T03:42:11;78.15;;;31.23;;
18251;SDS011;26917;52.328;20.878;2023-02-28T03:44:44;70.07;;;28.33;;
18251;SDS011;26917;52.328;20.878;2023-02-28T03:47:16;80.10;;;32.80;;
18251;SDS011;26917;52.328;20.878;2023-02-28T03:49:50;84.70;;;31.00;;
18251;SDS011;26917;52.328;20.878;2023-02-28T03:52:27;82.57;;;31.92;;
18251;SDS011;26917;52.328;20.878;2023-02-28T03:54:59;90.93;;;33.67;;
18251;SDS011;26917;52.328;20.878;2023-02-28T03:57:33;85.10;;;30.95;;
18251;SDS011;26917;52.328;20.878;2023-02-28T04:00:08;76.95;;;31.70;;
18251;SDS011;26917;52.328;20.878;2023-02-28T04:02:40;99.20;;;33.42;;
18251;SDS011;26917;52.328;20.878;2023-02-28T04:05:09;70.88;;;30.83;;
18251;SDS011;26917;52.328;20.878;2023-02-28T04:07:38;85.13;;;34.13;;
18251;SDS011;26917;52.328;20.878;2023-02-28T04:10:08;74.90;;;32.72;;
18251;SDS011;26917;52.328;20.878;2023-02-28T04:12:38;93.45;;;35.63;;
18251;SDS011;26917;52.328;20.878;2023-02-28T04:15:07;83.65;;;31.88;;
18251;SDS011;26917;52.328;20.878;2023-02-28T04:17:36;79.68;;;33.08;;
18251;SDS011;26917;52.328;20.878;2023-02-28T04:20:05;88.57;;;33.40;;
18251;SDS011;26917;52.328;20.878;2023-02-28T04:22:36;84.82;;;33.40;;
18251;SDS011;26917;52.328;20.878;2023-02-28T04:25:07;75.78;;;32.05;;
18251;SDS011;26917;52.328;20.878;2023-02-28T04:27:35;80.45;;;32.17;;
18251;SDS011;26917;52.328;20.878;2023-02-28T04:30:04;84.32;;;31.02;;
18251;SDS011;26917;52.328;20.878;2023-02-28T04:32:34;75.00;;;31.17;;
18251;SDS011;26917;52.328;20.878;2023-02-28T04:35:02;74.68;;;31.88;;
18251;SDS011;26917;52.328;20.878;2023-02-28T04:37:31;80.10;;;31.83;;
18251;SDS011;26917;52.328;20.878;2023-02-28T04:40:02;86.00;;;34.28;;
18251;SDS011;26917;52.328;20.878;2023-02-28T04:42:31;74.57;;;31.40;;
18251;SDS011;26917;52.328;20.878;2023-02-28T04:45:02;76.55;;;29.92;;
18251;SDS011;26917;52.328;20.878;2023-02-28T04:47:31;82.93;;;32.67;;
18251;SDS011;26917;52.328;20.878;2023-02-28T04:49:59;69.05;;;31.92;;
18251;SDS011;26917;52.328;20.878;2023-02-28T04:52:27;84.32;;;29.38;;
18251;SDS011;26917;52.328;20.878;2023-02-28T04:54:56;74.78;;;32.55;;
18251;SDS011;26917;52.328;20.878;2023-02-28T04:57:25;72.70;;;29.02;;
18251;SDS011;26917;52.328;20.878;2023-02-28T04:59:54;69.05;;;30.55;;
18251;SDS011;26917;52.328;20.878;2023-02-28T05:02:22;81.20;;;30.55;;
18251;SDS011;26917;52.328;20.878;2023-02-28T05:04:50;60.13;;;27.75;;
18251;SDS011;26917;52.328;20.878;2023-02-28T05:07:19;66.35;;;29.20;;
18251;SDS011;26917;52.328;20.878;2023-02-28T05:09:47;67.53;;;29.30;;
18251;SDS011;26917;52.328;20.878;2023-02-28T05:12:15;68.95;;;27.02;;
18251;SDS011;26917;52.328;20.878;2023-02-28T05:14:45;70.63;;;30.75;;
18251;SDS011;26917;52.328;20.878;2023-02-28T05:17:13;67.30;;;27.98;;
18251;SDS011;26917;52.328;20.878;2023-02-28T05:19:41;65.47;;;27.98;;
18251;SDS011;26917;52.328;20.878;2023-02-28T05:22:13;62.50;;;27.45;;
18251;SDS011;26917;52.328;20.878;2023-02-28T05:24:42;66.20;;;27.45;;
18251;SDS011;26917;52.328;20.878;2023-02-28T05:27:11;66.47;;;26.58;;
18251;SDS011;26917;52.328;20.878;2023-02-28T05:29:39;64.72;;;28.52;;
18251;SDS011;26917;52.328;20.878;2023-02-28T05:32:11;70.72;;;26.67;;
18251;SDS011;26917;52.328;20.878;2023-02-28T05:34:40;65.50;;;26.88;;
18251;SDS011;26917;52.328;20.878;2023-02-28T05:37:11;62.50;;;28.38;;
18251;SDS011;26917;52.328;20.878;2023-02-28T05:39:40;78.95;;;28.42;;
18251;SDS011;26917;52.328;20.878;2023-02-28T05:42:09;66.50;;;29.85;;
18251;SDS011;26917;52.328;20.878;2023-02-28T05:44:37;68.65;;;28.85;;
18251;SDS011;26917;52.328;20.878;2023-02-28T05:47:05;69.03;;;29.05;;
18251;SDS011;26917;52.328;20.878;2023-02-28T05:49:35;66.65;;;29.77;;
18251;SDS011;26917;52.328;20.878;2023-02-28T05:52:03;74.88;;;31.50;;
18251;SDS011;26917;52.328;20.878;2023-02-28T05:54:32;79.00;;;30.45;;
18251;SDS011;26917;52.328;20.878;2023-02-28T05:57:00;88.47;;;33.15;;
18251;SDS011;26917;52.328;20.878;2023-02-28T05:59:35;85.05;;;34.85;;
18251;SDS011;26917;52.328;20.878;2023-02-28T06:02:06;89.72;;;35.72;;
18251;SDS011;26917;52.328;20.878;2023-02-28T06:04:40;86.55;;;33.90;;
18251;SDS011;26917;52.328;20.878;2023-02-28T06:07:09;76.97;;;31.60;;
18251;SDS011;26917;52.328;20.878;2023-02-28T06:09:38;84.57;;;35.40;;
18251;SDS011;26917;52.328;20.878;2023-02-28T06:12:06;83.43;;;33.05;;
18251;SDS011;26917;52.328;20.878;2023-02-28T06:14:36;76.32;;;32.30;;
18251;SDS011;26917;52.328;20.878;2023-02-28T06:17:04;81.65;;;35.33;;
18251;SDS011;26917;52.328;20.878;2023-02-28T06:19:32;86.40;;;33.85;;
18251;SDS011;26917;52.328;20.878;2023-02-28T06:22:02;87.25;;;33.30;;
18251;SDS011;26917;52.328;20.878;2023-02-28T06:24:30;78.45;;;33.20;;
18251;SDS011;26917;52.328;20.878;2023-02-28T06:26:59;83.45;;;34.25;;
18251;SDS011;26917;52.328;20.878;2023-02-28T06:29:31;84.57;;;33.78;;
18251;SDS011;26917;52.328;20.878;2023-02-28T06:32:00;82.30;;;33.88;;
18251;SDS011;26917;52.328;20.878;2023-02-28T06:34:29;88.90;;;32.65;;
18251;SDS011;26917;52.328;20.878;2023-02-28T06:36:57;93.32;;;35.00;;
18251;SDS011;26917;52.328;20.878;2023-02-28T06:39:30;66.97;;;31.60;;
18251;SDS011;26917;52.328;20.878;2023-02-28T06:41:58;80.60;;;32.70;;
18251;SDS011;26917;52.328;20.878;2023-02-28T06:44:27;81.50;;;31.92;;
18251;SDS011;26917;52.328;20.878;2023-02-28T06:47:02;73.88;;;30.80;;
18251;SDS011;26917;52.328;20.878;2023-02-28T06:49:32;70.28;;;30.80;;
18251;SDS011;26917;52.328;20.878;2023-02-28T06:52:02;69.88;;;29.73;;
18251;SDS011;26917;52.328;20.878;2023-02-28T06:54:32;65.78;;;28.30;;
18251;SDS011;26917;52.328;20.878;2023-02-28T06:57:00;65.68;;;28.90;;
18251;SDS011;26917;52.328;20.878;2023-02-28T06:59:28;59.15;;;26.60;;
18251;SDS011;26917;52.328;20.878;2023-02-28T07:01:57;87.03;;;30.63;;
18251;SDS011;26917;52.328;20.878;2023-02-28T07:04:25;65.53;;;28.30;;
18251;SDS011;26917;52.328;20.878;2023-02-28T07:06:54;65.93;;;30.02;;
18251;SDS011;26917;52.328;20.878;2023-02-28T07:09:23;63.95;;;28.00;;
18251;SDS011;26917;52.328;20.878;2023-02-28T07:11:57;66.03;;;27.83;;
18251;SDS011;26917;52.328;20.878;2023-02-28T07:14:26;66.72;;;27.73;;
18251;SDS011;26917;52.328;20.878;2023-02-28T07:16:55;59.40;;;26.13;;
18251;SDS011;26917;52.328;20.878;2023-02-28T07:19:23;63.55;;;26.73;;
18251;SDS011;26917;52.328;20.878;2023-02-28T07:21:51;56.85;;;25.20;;
18251;SDS011;26917;52.328;20.878;2023-02-28T07:24:20;59.95;;;25.73;;
18251;SDS011;26917;52.328;20.878;2023-02-28T07:26:52;55.65;;;23.17;;
18251;SDS011;26917;52.328;20.878;2023-02-28T07:29:21;49.60;;;21.40;;
18251;SDS011;26917;52.328;20.878;2023-02-28T07:31:50;48.28;;;21.88;;
18251;SDS011;26917;52.328;20.878;2023-02-28T07:34:20;55.35;;;23.70;;
18251;SDS011;26917;52.328;20.878;2023-02-28T07:36:48;58.22;;;24.20;;
18251;SDS011;26917;52.328;20.878;2023-02-28T07:39:20;49.47;;;22.45;;
18251;SDS011;26917;52.328;20.878;2023-02-28T07:41:49;42.13;;;20.40;;
18251;SDS011;26917;52.328;20.878;2023-02-28T07:44:18;45.10;;;19.08;;
18251;SDS011;26917;52.328;20.878;2023-02-28T07:46:48;36.78;;;18.98;;
18251;SDS011;26917;52.328;20.878;2023-02-28T07:49:17;31.00;;;16.10;;
18251;SDS011;26917;52.328;20.878;2023-02-28T07:51:45;32.58;;;17.50;;
18251;SDS011;26917;52.328;20.878;2023-02-28T07:54:13;37.92;;;16.95;;
18251;SDS011;26917;52.328;20.878;2023-02-28T07:56:41;30.60;;;15.98;;
18251;SDS011;26917;52.328;20.878;2023-02-28T07:59:10;26.90;;;14.50;;
18251;SDS011;26917;52.328;20.878;2023-02-28T08:01:38;26.58;;;13.15;;
18251;SDS011;26917;52.328;20.878;2023-02-28T08:04:08;24.98;;;13.48;;
18251;SDS011;26917;52.328;20.878;2023-02-28T08:06:36;19.63;;;11.23;;
18251;SDS011;26917;52.328;20.878;2023-02-28T08:09:05;17.23;;;10.95;;
18251;SDS011;26917;52.328;20.878;2023-02-28T08:11:33;20.08;;;10.65;;
18251;SDS011;26917;52.328;20.878;2023-02-28T08:14:02;18.85;;;11.07;;
18251;SDS011;26917;52.328;20.878;2023-02-28T08:16:31;15.60;;;11.15;;
18251;SDS011;26917;52.328;20.878;2023-02-28T08:18:59;18.98;;;12.07;;
18251;SDS011;26917;52.328;20.878;2023-02-28T08:21:28;16.08;;;10.55;;
18251;SDS011;26917;52.328;20.878;2023-02-28T08:23:57;23.52;;;11.20;;
18251;SDS011;26917;52.328;20.878;2023-02-28T08:26:25;18.55;;;10.50;;
18251;SDS011;26917;52.328;20.878;2023-02-28T08:28:54;17.25;;;10.18;;
18251;SDS011;26917;52.328;20.878;2023-02-28T08:31:25;16.25;;;9.95;;
18251;SDS011;26917;52.328;20.878;2023-02-28T08:33:54;18.45;;;10.18;;
18251;SDS011;26917;52.328;20.878;2023-02-28T08:36:25;20.45;;;10.32;;
18251;SDS011;26917;52.328;20.878;2023-02-28T08:38:57;13.27;;;9.40;;
18251;SDS011;26917;52.328;20.878;2023-02-28T08:41:25;17.23;;;9.68;;
18251;SDS011;26917;52.328;20.878;2023-02-28T08:43:54;17.75;;;8.50;;
18251;SDS011;26917;52.328;20.878;2023-02-28T08:46:23;12.23;;;8.20;;
18251;SDS011;26917;52.328;20.878;2023-02-28T08:48:52;15.30;;;8.55;;
18251;SDS011;26917;52.328;20.878;2023-02-28T08:51:20;15.68;;;8.35;;
18251;SDS011;26917;52.328;20.878;2023-02-28T08:53:54;13.27;;;8.90;;
18251;SDS011;26917;52.328;20.878;2023-02-28T08:56:24;9.88;;;7.03;;
18251;SDS011;26917;52.328;20.878;2023-02-28T08:58:54;20.35;;;8.32;;
18251;SDS011;26917;52.328;20.878;2023-02-28T09:01:23;11.68;;;7.60;;
18251;SDS011;26917;52.328;20.878;2023-02-28T09:03:55;11.35;;;8.45;;
18251;SDS011;26917;52.328;20.878;2023-02-28T09:06:25;14.98;;;8.07;;
18251;SDS011;26917;52.328;20.878;2023-02-28T09:08:56;12.38;;;8.10;;
18251;SDS011;26917;52.328;20.878;2023-02-28T09:11:27;15.30;;;9.30;;
18251;SDS011;26917;52.328;20.878;2023-02-28T09:13:57;14.10;;;9.07;;
18251;SDS011;26917;52.328;20.878;2023-02-28T09:16:26;14.75;;;8.13;;
18251;SDS011;26917;52.328;20.878;2023-02-28T09:18:55;17.55;;;10.02;;
18251;SDS011;26917;52.328;20.878;2023-02-28T09:21:23;12.65;;;9.30;;
18251;SDS011;26917;52.328;20.878;2023-02-28T09:23:51;15.68;;;8.43;;
18251;SDS011;26917;52.328;20.878;2023-02-28T09:26:21;14.82;;;8.85;;
18251;SDS011;26917;52.328;20.878;2023-02-28T09:31:36;12.50;;;8.95;;
18251;SDS011;26917;52.328;20.878;2023-02-28T09:34:04;15.00;;;8.88;;
18251;SDS011;26917;52.328;20.878;2023-02-28T09:36:33;12.75;;;8.68;;
18251;SDS011;26917;52.328;20.878;2023-02-28T09:39:11;13.70;;;8.45;;
18251;SDS011;26917;52.328;20.878;2023-02-28T09:41:42;11.70;;;7.72;;
18251;SDS011;26917;52.328;20.878;2023-02-28T09:44:20;14.77;;;8.65;;
18251;SDS011;26917;52.328;20.878;2023-02-28T09:46:56;12.20;;;7.82;;
18251;SDS011;26917;52.328;20.878;2023-02-28T09:49:31;16.88;;;8.95;;
18251;SDS011;26917;52.328;20.878;2023-02-28T09:52:06;18.70;;;9.85;;
18251;SDS011;26917;52.328;20.878;2023-02-28T09:54:40;23.38;;;9.55;;
18251;SDS011;26917;52.328;20.878;2023-02-28T09:57:13;25.23;;;11.90;;
18251;SDS011;26917;52.328;20.878;2023-02-28T09:59:57;20.42;;;10.40;;
18251;SDS011;26917;52.328;20.878;2023-02-28T10:02:46;18.40;;;10.50;;
18251;SDS011;26917;52.328;20.878;2023-02-28T10:05:27;20.80;;;10.95;;
18251;SDS011;26917;52.328;20.878;2023-02-28T10:08:02;20.02;;;10.15;;
18251;SDS011;26917;52.328;20.878;2023-02-28T10:10:36;17.45;;;10.77;;
18251;SDS011;26917;52.328;20.878;2023-02-28T10:13:12;17.33;;;10.15;;
18251;SDS011;26917;52.328;20.878;2023-02-28T10:15:46;20.00;;;10.13;;
18251;SDS011;26917;52.328;20.878;2023-02-28T10:18:20;17.38;;;9.50;;
18251;SDS011;26917;52.328;20.878;2023-02-28T10:20:52;16.80;;;10.70;;
18251;SDS011;26917;52.328;20.878;2023-02-28T10:23:23;13.82;;;10.30;;
18251;SDS011;26917;52.328;20.878;2023-02-28T10:25:57;14.45;;;9.50;;
18251;SDS011;26917;52.328;20.878;2023-02-28T10:28:28;16.05;;;9.68;;
18251;SDS011;26917;52.328;20.878;2023-02-28T10:31:02;21.50;;;11.88;;
18251;SDS011;26917;52.328;20.878;2023-02-28T10:33:32;16.13;;;9.32;;
18251;SDS011;26917;52.328;20.878;2023-02-28T10:36:02;24.13;;;11.07;;
18251;SDS011;26917;52.328;20.878;2023-02-28T10:38:33;18.55;;;9.57;;
18251;SDS011;26917;52.328;20.878;2023-02-28T10:41:04;15.90;;;9.70;;
18251;SDS011;26917;52.328;20.878;2023-02-28T10:43:40;17.95;;;10.45;;
18251;SDS011;26917;52.328;20.878;2023-02-28T10:46:22;24.80;;;10.98;;
18251;SDS011;26917;52.328;20.878;2023-02-28T10:49:01;15.45;;;9.70;;
18251;SDS011;26917;52.328;20.878;2023-02-28T10:51:38;15.80;;;9.93;;
18251;SDS011;26917;52.328;20.878;2023-02-28T10:54:14;18.77;;;9.15;;
18251;SDS011;26917;52.328;20.878;2023-02-28T10:57:07;21.52;;;10.15;;
18251;SDS011;26917;52.328;20.878;2023-02-28T10:59:42;21.25;;;10.80;;
18251;SDS011;26917;52.328;20.878;2023-02-28T11:02:31;15.43;;;9.50;;
18251;SDS011;26917;52.328;20.878;2023-02-28T11:05:02;18.85;;;9.15;;
18251;SDS011;26917;52.328;20.878;2023-02-28T11:08:12;16.90;;;9.45;;
18251;SDS011;26917;52.328;20.878;2023-02-28T11:10:44;14.73;;;8.95;;
18251;SDS011;26917;52.328;20.878;2023-02-28T11:13:19;15.85;;;8.75;;
18251;SDS011;26917;52.328;20.878;2023-02-28T11:15:50;14.38;;;8.52;;
18251;SDS011;26917;52.328;20.878;2023-02-28T11:18:27;14.93;;;9.13;;
18251;SDS011;26917;52.328;20.878;2023-02-28T11:20:58;13.13;;;8.90;;
18251;SDS011;26917;52.328;20.878;2023-02-28T11:23:29;15.85;;;9.88;;
18251;SDS011;26917;52.328;20.878;2023-02-28T11:26:03;16.20;;;9.13;;
18251;SDS011;26917;52.328;20.878;2023-02-28T11:28:36;18.38;;;9.20;;
18251;SDS011;26917;52.328;20.878;2023-02-28T11:36:55;14.95;;;8.95;;
18251;SDS011;26917;52.328;20.878;2023-02-28T11:39:26;13.82;;;8.50;;
18251;SDS011;26917;52.328;20.878;2023-02-28T11:42:01;17.23;;;10.63;;
18251;SDS011;26917;52.328;20.878;2023-02-28T11:44:42;13.48;;;8.55;;
18251;SDS011;26917;52.328;20.878;2023-02-28T11:47:24;13.48;;;9.05;;
18251;SDS011;26917;52.328;20.878;2023-02-28T11:50:08;14.40;;;9.13;;
18251;SDS011;26917;52.328;20.878;2023-02-28T11:53:00;13.02;;;8.30;;
18251;SDS011;26917;52.328;20.878;2023-02-28T11:55:31;15.73;;;9.38;;
18251;SDS011;26917;52.328;20.878;2023-02-28T11:58:14;13.48;;;8.45;;
18251;SDS011;26917;52.328;20.878;2023-02-28T12:00:55;12.75;;;8.48;;
18251;SDS011;26917;52.328;20.878;2023-02-28T12:03:34;20.98;;;8.75;;
18251;SDS011;26917;52.328;20.878;2023-02-28T12:06:18;14.50;;;8.80;;
18251;SDS011;26917;52.328;20.878;2023-02-28T12:08:56;13.52;;;8.98;;
18251;SDS011;26917;52.328;20.878;2023-02-28T12:11:45;15.52;;;7.95;;
18251;SDS011;26917;52.328;20.878;2023-02-28T12:20:25;17.15;;;8.00;;
18251;SDS011;26917;52.328;20.878;2023-02-28T12:23:05;12.02;;;7.30;;
18251;SDS011;26917;52.328;20.878;2023-02-28T12:25:53;15.75;;;8.73;;
18251;SDS011;26917;52.328;20.878;2023-02-28T12:28:30;15.35;;;8.25;;
18251;SDS011;26917;52.328;20.878;2023-02-28T12:31:04;13.95;;;8.30;;
18251;SDS011;26917;52.328;20.878;2023-02-28T12:33:38;15.30;;;8.38;;
18251;SDS011;26917;52.328;20.878;2023-02-28T12:36:13;13.70;;;8.73;;
18251;SDS011;26917;52.328;20.878;2023-02-28T12:38:47;12.88;;;8.32;;
18251;SDS011;26917;52.328;20.878;2023-02-28T12:41:22;15.38;;;8.35;;
18251;SDS011;26917;52.328;20.878;2023-02-28T12:43:58;14.02;;;8.32;;
18251;SDS011;26917;52.328;20.878;2023-02-28T12:46:30;11.23;;;8.25;;
18251;SDS011;26917;52.328;20.878;2023-02-28T12:49:06;14.55;;;8.80;;
18251;SDS011;26917;52.328;20.878;2023-02-28T12:51:37;12.70;;;7.97;;
18251;SDS011;26917;52.328;20.878;2023-02-28T12:54:14;12.25;;;7.65;;
18251;SDS011;26917;52.328;20.878;2023-02-28T12:56:52;11.35;;;8.77;;
18251;SDS011;26917;52.328;20.878;2023-02-28T12:59:32;14.70;;;9.52;;
18251;SDS011;26917;52.328;20.878;2023-02-28T13:05:17;17.80;;;10.15;;
18251;SDS011;26917;52.328;20.878;2023-02-28T13:08:05;13.50;;;9.80;;
18251;SDS011;26917;52.328;20.878;2023-02-28T13:11:06;19.05;;;9.63;;
18251;SDS011;26917;52.328;20.878;2023-02-28T13:13:46;15.75;;;9.40;;
18251;SDS011;26917;52.328;20.878;2023-02-28T13:16:15;16.80;;;8.90;;
18251;SDS011;26917;52.328;20.878;2023-02-28T13:18:44;17.85;;;9.35;;
18251;SDS011;26917;52.328;20.878;2023-02-28T13:21:22;13.80;;;8.23;;
18251;SDS011;26917;52.328;20.878;2023-02-28T13:23:59;15.07;;;8.63;;
18251;SDS011;26917;52.328;20.878;2023-02-28T13:29:38;14.80;;;9.15;;
18251;SDS011;26917;52.328;20.878;2023-02-28T13:35:14;12.73;;;8.52;;
18251;SDS011;26917;52.328;20.878;2023-02-28T13:40:49;20.58;;;9.23;;
18251;SDS011;26917;52.328;20.878;2023-02-28T13:43:17;22.45;;;8.60;;
18251;SDS011;26917;52.328;20.878;2023-02-28T13:46:21;17.42;;;8.73;;
18251;SDS011;26917;52.328;20.878;2023-02-28T13:48:49;12.73;;;8.88;;
18251;SDS011;26917;52.328;20.878;2023-02-28T13:51:28;15.80;;;8.77;;
18251;SDS011;26917;52.328;20.878;2023-02-28T13:54:13;18.58;;;9.82;;
18251;SDS011;26917;52.328;20.878;2023-02-28T13:56:52;14.10;;;8.20;;
18251;SDS011;26917;52.328;20.878;2023-02-28T13:59:34;13.40;;;8.20;;
18251;SDS011;26917;52.328;20.878;2023-02-28T14:02:19;11.20;;;7.65;;
18251;SDS011;26917;52.328;20.878;2023-02-28T14:05:05;13.75;;;8.38;;
18251;SDS011;26917;52.328;20.878;2023-02-28T14:07:42;14.15;;;8.68;;
18251;SDS011;26917;52.328;20.878;2023-02-28T14:10:21;14.43;;;8.30;;
18251;SDS011;26917;52.328;20.878;2023-02-28T14:13:00;13.25;;;8.32;;
18251;SDS011;26917;52.328;20.878;2023-02-28T14:15:40;17.42;;;9.18;;
18251;SDS011;26917;52.328;20.878;2023-02-28T14:18:20;15.80;;;8.38;;
18251;SDS011;26917;52.328;20.878;2023-02-28T14:21:01;19.08;;;9.40;;
18251;SDS011;26917;52.328;20.878;2023-02-28T14:23:45;14.32;;;8.68;;
18251;SDS011;26917;52.328;20.878;2023-02-28T14:26:34;17.63;;;9.30;;
18251;SDS011;26917;52.328;20.878;2023-02-28T14:29:21;15.98;;;8.00;;
18251;SDS011;26917;52.328;20.878;2023-02-28T14:32:05;19.30;;;9.63;;
18251;SDS011;26917;52.328;20.878;2023-02-28T14:34:42;14.88;;;8.07;;
18251;SDS011;26917;52.328;20.878;2023-02-28T14:37:19;17.92;;;8.05;;
18251;SDS011;26917;52.328;20.878;2023-02-28T14:39:53;16.70;;;8.73;;
18251;SDS011;26917;52.328;20.878;2023-02-28T14:42:30;14.23;;;8.88;;
18251;SDS011;26917;52.328;20.878;2023-02-28T14:45:00;20.75;;;8.73;;
18251;SDS011;26917;52.328;20.878;2023-02-28T14:47:30;20.45;;;9.27;;
18251;SDS011;26917;52.328;20.878;2023-02-28T14:50:03;12.80;;;7.55;;
18251;SDS011;26917;52.328;20.878;2023-02-28T14:52:32;11.85;;;8.32;;
18251;SDS011;26917;52.328;20.878;2023-02-28T14:55:03;13.52;;;8.63;;
18251;SDS011;26917;52.328;20.878;2023-02-28T14:57:39;12.02;;;8.05;;
18251;SDS011;26917;52.328;20.878;2023-02-28T15:00:12;14.38;;;7.93;;
18251;SDS011;26917;52.328;20.878;2023-02-28T15:02:43;17.90;;;9.23;;
18251;SDS011;26917;52.328;20.878;2023-02-28T15:05:29;16.92;;;8.77;;
18251;SDS011;26917;52.328;20.878;2023-02-28T15:08:06;13.75;;;9.38;;
18251;SDS011;26917;52.328;20.878;2023-02-28T15:10:38;21.85;;;9.30;;
18251;SDS011;26917;52.328;20.878;2023-02-28T15:13:10;28.25;;;9.23;;
18251;SDS011;26917;52.328;20.878;2023-02-28T15:15:45;15.73;;;9.02;;
18251;SDS011;26917;52.328;20.878;2023-02-28T15:18:33;13.65;;;7.82;;